Time;durP1;ratioP1;P1;durP2;ratioP2;P2;SDS_P1;SDS_P2;PMS_P1;PMS_P2;Temp;Humidity;BMP_temperature;BMP_pressure;BME280_temperature;BME280_humidity;BME280_pressure;Samples;Min_cycle;Max_cycle;Signal;HPM_P1;HPM_P2
2023/01/27 00:00:34;;;;;;;23.15;12.45;;;1.50;85.80;;;;;;5022680;28;20045;-59
2023/01/27 00:03:00;;;;;;;22.92;11.77;;;1.40;85.60;;;;;;5025775;28;20040;-60
2023/01/27 00:05:25;;;;;;;24.00;12.13;;;1.50;85.60;;;;;;5025368;28;20124;-59
2023/01/27 00:07:51;;;;;;;21.52;12.10;;;1.40;86.30;;;;;;5025494;28;20041;-57
2023/01/27 00:10:18;;;;;;;22.30;12.57;;;1.40;85.50;;;;;;5023616;28;20057;-57
2023/01/27 00:15:31;;;;;;;23.73;12.27;;;1.40;85.60;;;;;;5024957;28;20549;-58
2023/01/27 00:17:57;;;;;;;21.45;12.38;;;1.50;85.60;;;;;;5024235;28;20175;-59
2023/01/27 00:26:05;;;;;;;22.35;12.95;;;1.50;85.50;;;;;;5025811;28;20036;-59
2023/01/27 00:28:34;;;;;;;23.08;12.73;;;1.50;85.40;;;;;;5023023;28;20721;-60
2023/01/27 00:31:00;;;;;;;21.83;12.00;;;1.50;86.20;;;;;;5022827;28;20038;-60
2023/01/27 00:33:26;;;;;;;26.15;13.73;;;1.50;85.40;;;;;;5026008;28;20042;-58
2023/01/27 00:36:06;;;;;;;23.52;13.00;;;1.50;85.30;;;;;;5024141;28;20622;-59
2023/01/27 00:38:39;;;;;;;22.60;13.00;;;1.50;84.90;;;;;;5021814;28;20041;-58
2023/01/27 00:41:18;;;;;;;25.73;12.90;;;1.50;85.10;;;;;;5023665;28;20124;-59
2023/01/27 00:43:49;;;;;;;23.88;13.02;;;1.40;85.20;;;;;;5024330;28;20140;-59
2023/01/27 00:46:16;;;;;;;24.27;12.60;;;1.40;85.40;;;;;;5022730;28;20183;-57
2023/01/27 00:48:42;;;;;;;26.20;13.63;;;1.40;85.40;;;;;;5022840;28;20037;-59
2023/01/27 00:51:08;;;;;;;23.85;12.82;;;1.50;85.40;;;;;;5023666;28;20033;-59
2023/01/27 00:53:34;;;;;;;26.25;13.90;;;1.50;85.30;;;;;;5023078;28;20071;-57
2023/01/27 00:55:59;;;;;;;21.75;12.70;;;1.50;85.40;;;;;;5024821;28;20070;-54
2023/01/27 00:58:26;;;;;;;23.25;13.25;;;1.50;85.20;;;;;;5023415;28;20030;-59
2023/01/27 01:00:58;;;;;;;25.63;13.82;;;1.50;85.10;;;;;;5021907;28;20033;-60
2023/01/27 01:03:25;;;;;;;22.70;12.50;;;1.50;85.00;;;;;;5022383;28;20040;-56
2023/01/27 01:05:51;;;;;;;23.73;12.98;;;1.50;85.10;;;;;;5023712;28;20049;-60
2023/01/27 01:08:16;;;;;;;26.92;13.32;;;1.50;85.10;;;;;;5023860;28;20090;-60
2023/01/27 01:10:42;;;;;;;25.75;13.43;;;1.60;85.30;;;;;;5019583;28;20042;-59
2023/01/27 01:13:10;;;;;;;29.85;14.80;;;1.50;86.00;;;;;;5022129;28;20116;-55
2023/01/27 01:15:37;;;;;;;27.67;14.75;;;1.50;84.90;;;;;;5023703;28;20411;-59
2023/01/27 01:18:04;;;;;;;24.35;13.82;;;1.50;84.90;;;;;;5024091;28;20431;-58
2023/01/27 01:20:29;;;;;;;26.55;12.93;;;1.50;85.60;;;;;;5023699;28;20041;-60
2023/01/27 01:22:56;;;;;;;24.08;13.30;;;1.50;84.90;;;;;;5021890;28;20038;-61
2023/01/27 01:25:21;;;;;;;27.13;13.98;;;1.40;84.70;;;;;;5023731;28;20044;-58
2023/01/27 01:27:47;;;;;;;25.83;12.60;;;1.40;84.60;;;;;;5022912;28;20042;-60
2023/01/27 01:30:13;;;;;;;27.90;14.10;;;1.30;84.60;;;;;;5024254;28;20321;-60
2023/01/27 01:32:38;;;;;;;26.70;13.77;;;1.30;84.80;;;;;;5021470;28;20033;-60
2023/01/27 01:35:04;;;;;;;27.05;14.07;;;1.30;85.00;;;;;;5023880;28;20029;-59
2023/01/27 01:37:30;;;;;;;27.95;13.70;;;1.30;85.10;;;;;;5022501;28;20030;-59
2023/01/27 01:39:55;;;;;;;24.02;12.68;;;1.30;85.10;;;;;;5020293;28;20401;-61
2023/01/27 01:42:21;;;;;;;27.25;13.50;;;1.40;85.30;;;;;;5015939;28;20042;-58
2023/01/27 01:44:46;;;;;;;24.63;13.60;;;1.40;85.30;;;;;;5018795;28;20121;-59
2023/01/27 01:47:16;;;;;;;28.60;14.40;;;1.30;85.10;;;;;;5017038;28;20266;-59
2023/01/27 01:49:44;;;;;;;23.90;12.60;;;1.40;85.00;;;;;;5023951;28;20574;-59
2023/01/27 01:52:14;;;;;;;23.77;12.27;;;1.40;84.80;;;;;;5020465;28;20045;-60
2023/01/27 01:54:49;;;;;;;21.00;11.65;;;1.30;84.80;;;;;;5024898;28;20516;-59
2023/01/27 01:57:20;;;;;;;;;;;1.30;84.90;;;;;;5023723;28;20061;-58
2023/01/27 01:59:59;;;;;;;23.25;12.18;;;1.30;84.90;;;;;;5024797;28;19917;-55
2023/01/27 02:02:25;;;;;;;24.25;12.63;;;1.30;84.70;;;;;;5018621;28;20037;-57
2023/01/27 02:04:56;;;;;;;24.45;12.02;;;1.30;84.60;;;;;;5026517;28;20034;-59
2023/01/27 02:07:38;;;;;;;21.13;11.80;;;1.30;84.70;;;;;;5024090;28;20033;-59
2023/01/27 02:10:04;;;;;;;21.42;11.68;;;1.20;84.80;;;;;;5027232;28;20094;-59
2023/01/27 02:12:30;;;;;;;22.38;11.95;;;1.20;85.10;;;;;;5021269;28;20533;-59
2023/01/27 02:14:55;;;;;;;24.60;12.57;;;1.20;85.30;;;;;;5027587;28;20056;-59
2023/01/27 02:17:21;;;;;;;21.35;12.05;;;1.20;85.30;;;;;;5022414;28;20026;-59
2023/01/27 02:20:09;;;;;;;19.73;10.95;;;1.20;84.90;;;;;;5026183;28;20639;-60
2023/01/27 02:22:47;;;;;;;18.42;10.48;;;1.20;84.90;;;;;;5017399;28;20070;-60
2023/01/27 02:25:37;;;;;;;15.32;9.07;;;1.20;85.00;;;;;;5025049;28;20045;-58
2023/01/27 02:28:05;;;;;;;16.92;10.15;;;1.20;85.00;;;;;;5023716;28;20277;-58
2023/01/27 02:30:31;;;;;;;15.70;9.15;;;1.20;84.80;;;;;;5023698;28;20136;-59
2023/01/27 02:32:57;;;;;;;17.02;10.05;;;1.20;84.70;;;;;;5021805;28;20142;-58
2023/01/27 02:36:07;;;;;;;17.02;10.18;;;1.20;84.70;;;;;;5022289;28;20041;-57
2023/01/27 02:38:37;;;;;;;19.00;10.00;;;1.20;84.40;;;;;;5010574;28;20136;-59
2023/01/27 02:41:14;;;;;;;19.88;10.40;;;1.20;84.30;;;;;;5026796;28;20064;-58
2023/01/27 02:43:40;;;;;;;19.23;10.60;;;1.20;84.20;;;;;;5025480;28;20088;-57
2023/01/27 02:46:06;;;;;;;17.48;10.07;;;1.20;84.40;;;;;;5023601;28;20521;-57
2023/01/27 02:48:31;;;;;;;17.77;10.23;;;1.20;84.70;;;;;;5026038;28;20380;-58
2023/01/27 02:50:57;;;;;;;17.27;9.90;;;1.10;84.70;;;;;;5026037;28;20033;-59
2023/01/27 02:53:23;;;;;;;17.55;10.30;;;1.10;84.70;;;;;;5024764;28;20253;-58
2023/01/27 02:55:48;;;;;;;17.33;9.48;;;1.10;84.80;;;;;;5025859;28;20038;-60
2023/01/27 02:58:15;;;;;;;16.73;10.38;;;1.20;84.90;;;;;;5024796;28;20164;-58
2023/01/27 03:00:41;;;;;;;17.25;10.02;;;1.10;85.00;;;;;;5024034;28;20044;-58
2023/01/27 03:03:07;;;;;;;15.88;9.70;;;1.10;85.30;;;;;;5026341;28;20037;-59
2023/01/27 03:05:33;;;;;;;15.20;9.23;;;1.10;84.70;;;;;;5024062;28;20042;-57
2023/01/27 03:07:58;;;;;;;18.38;10.05;;;1.10;84.70;;;;;;5020903;28;20034;-58
2023/01/27 03:10:24;;;;;;;17.05;9.63;;;1.20;84.90;;;;;;5022614;28;20045;-58
2023/01/27 03:12:50;;;;;;;16.35;9.98;;;1.10;84.70;;;;;;5018485;28;20045;-59
2023/01/27 03:18:14;;;;;;;11.83;7.10;;;1.20;85.00;;;;;;5022387;28;20031;-58
2023/01/27 03:20:42;;;;;;;15.60;8.55;;;1.20;84.90;;;;;;5021155;28;20444;-59
2023/01/27 03:23:08;;;;;;;16.70;9.00;;;1.20;84.90;;;;;;5021149;28;20084;-61
2023/01/27 03:25:33;;;;;;;14.15;9.05;;;1.20;84.90;;;;;;5022334;28;20443;-59
2023/01/27 03:27:59;;;;;;;17.42;9.95;;;1.20;84.90;;;;;;5017318;28;20041;-60
2023/01/27 03:30:26;;;;;;;15.20;9.00;;;1.30;84.80;;;;;;5020765;28;20513;-59
2023/01/27 03:32:52;;;;;;;16.60;9.85;;;1.30;84.60;;;;;;5020605;28;20301;-59
2023/01/27 03:35:17;;;;;;;16.90;9.73;;;1.30;84.60;;;;;;5021618;28;20045;-59
2023/01/27 03:46:14;;;;;;;16.30;9.73;;;1.30;84.60;;;;;;5025957;28;20181;-59
2023/01/27 03:48:39;;;;;;;16.40;9.55;;;1.30;84.60;;;;;;5028760;28;20033;-58
2023/01/27 03:51:07;;;;;;;16.85;9.43;;;1.30;84.60;;;;;;5023625;28;20040;-55
2023/01/27 03:53:34;;;;;;;16.63;9.80;;;1.40;84.60;;;;;;5029054;28;20038;-62
2023/01/27 03:56:00;;;;;;;16.25;9.68;;;1.40;84.40;;;;;;5027466;28;20493;-59
2023/01/27 03:58:28;;;;;;;16.40;9.75;;;1.40;84.40;;;;;;5021663;28;20034;-60
2023/01/27 04:00:56;;;;;;;15.05;9.10;;;1.30;84.20;;;;;;5043708;28;20037;-59
2023/01/27 04:08:55;;;;;;;16.85;9.48;;;1.30;84.40;;;;;;5044576;28;20052;-58
2023/01/27 04:14:07;;;;;;;18.05;9.70;;;1.30;84.30;;;;;;5042836;28;20098;-58
2023/01/27 04:16:35;;;;;;;17.50;9.63;;;1.30;84.20;;;;;;5042135;28;20076;-57
2023/01/27 04:19:03;;;;;;;14.70;8.80;;;1.30;84.00;;;;;;5044817;28;20060;-58
2023/01/27 04:21:29;;;;;;;15.68;9.27;;;1.30;84.00;;;;;;5041564;28;20052;-58
2023/01/27 04:23:55;;;;;;;17.13;9.25;;;1.30;84.30;;;;;;5048041;28;20033;-58
2023/01/27 04:26:21;;;;;;;16.05;8.82;;;1.30;84.40;;;;;;5039479;28;20037;-57
2023/01/27 04:28:47;;;;;;;16.15;9.45;;;1.30;84.60;;;;;;5046346;28;20108;-57
2023/01/27 04:31:14;;;;;;;18.50;10.40;;;1.30;84.60;;;;;;5042265;28;20114;-57
2023/01/27 04:33:43;;;;;;;15.65;9.25;;;1.30;84.60;;;;;;5048927;28;20041;-57
2023/01/27 04:36:14;;;;;;;17.75;9.32;;;1.30;84.40;;;;;;5039999;28;20591;-57
2023/01/27 04:38:40;;;;;;;15.07;9.13;;;1.30;84.40;;;;;;5044464;28;20348;-57
2023/01/27 04:41:05;;;;;;;15.27;8.65;;;1.30;84.40;;;;;;5045034;28;20061;-58
2023/01/27 04:43:31;;;;;;;16.15;9.15;;;1.40;84.20;;;;;;5040567;28;20037;-57
2023/01/27 04:45:56;;;;;;;14.27;8.30;;;1.30;84.00;;;;;;5039689;28;20021;-59
2023/01/27 04:48:22;;;;;;;15.05;8.65;;;1.30;85.00;;;;;;5043909;28;20072;-59
2023/01/27 04:50:47;;;;;;;12.00;7.65;;;1.40;84.20;;;;;;5042474;28;20037;-57
2023/01/27 04:53:13;;;;;;;13.30;8.15;;;1.40;84.10;;;;;;5039650;28;20041;-57
2023/01/27 04:55:47;;;;;;;15.25;8.30;;;1.30;84.00;;;;;;5027046;28;20036;-57
2023/01/27 04:58:14;;;;;;;12.85;7.70;;;1.30;83.90;;;;;;5032150;28;20033;-57
2023/01/27 05:00:39;;;;;;;13.90;8.23;;;1.40;84.00;;;;;;5035529;28;20036;-57
2023/01/27 05:03:05;;;;;;;11.65;7.53;;;1.30;84.10;;;;;;5032739;28;20045;-57
2023/01/27 05:05:31;;;;;;;14.27;7.95;;;1.40;84.20;;;;;;5027122;28;20037;-59
2023/01/27 05:08:04;;;;;;;14.38;8.45;;;1.40;84.30;;;;;;5031220;28;20547;-57
2023/01/27 05:10:30;;;;;;;14.60;7.68;;;1.40;84.20;;;;;;5027997;28;20064;-57
2023/01/27 05:12:56;;;;;;;12.85;7.55;;;1.30;84.10;;;;;;5019722;28;20083;-58
2023/01/27 05:15:21;;;;;;;11.45;7.32;;;1.40;84.20;;;;;;5028283;28;20041;-58
2023/01/27 05:17:47;;;;;;;16.67;8.93;;;1.40;84.10;;;;;;5027705;28;20527;-59
2023/01/27 05:20:12;;;;;;;18.10;9.50;;;1.40;84.10;;;;;;5026094;28;20478;-59
2023/01/27 05:22:38;;;;;;;12.32;7.32;;;1.40;84.20;;;;;;5032521;28;20103;-56
2023/01/27 05:25:04;;;;;;;12.68;7.00;;;1.40;84.20;;;;;;5032209;28;20401;-59
2023/01/27 05:27:30;;;;;;;9.90;6.53;;;1.40;84.00;;;;;;5038112;28;20493;-58
2023/01/27 05:29:56;;;;;;;11.35;6.60;;;1.40;83.90;;;;;;5037228;28;20044;-58
2023/01/27 05:32:21;;;;;;;9.65;6.18;;;1.40;84.00;;;;;;5038453;28;20394;-58
2023/01/27 05:34:47;;;;;;;12.00;6.75;;;1.40;84.20;;;;;;5037672;28;20026;-58
2023/01/27 05:37:12;;;;;;;14.38;7.35;;;1.40;84.00;;;;;;5038697;28;20126;-59
2023/01/27 05:39:38;;;;;;;10.40;6.55;;;1.40;84.10;;;;;;5038058;28;20260;-59
2023/01/27 05:42:04;;;;;;;11.50;6.32;;;1.40;84.00;;;;;;5037172;28;20499;-58
2023/01/27 05:44:29;;;;;;;11.93;7.10;;;1.40;84.00;;;;;;5037805;28;20412;-58
2023/01/27 05:46:55;;;;;;;11.80;7.20;;;1.40;84.70;;;;;;5038551;28;20109;-58
2023/01/27 05:49:20;;;;;;;12.38;7.15;;;1.40;84.00;;;;;;5038547;28;20075;-58
2023/01/27 05:51:46;;;;;;;13.55;7.13;;;1.30;84.00;;;;;;5036377;28;20611;-57
2023/01/27 05:54:12;;;;;;;11.05;6.97;;;1.30;84.20;;;;;;5035557;28;20076;-55
2023/01/27 05:56:39;;;;;;;16.13;7.90;;;1.30;84.20;;;;;;5035462;28;20094;-57
2023/01/27 05:59:05;;;;;;;13.15;7.07;;;1.30;84.30;;;;;;5032396;28;20030;-57
2023/01/27 06:01:32;;;;;;;13.23;7.57;;;1.30;84.40;;;;;;5031087;28;20044;-59
2023/01/27 06:03:58;;;;;;;15.10;8.15;;;1.20;84.50;;;;;;5034527;28;20039;-58
2023/01/27 06:06:26;;;;;;;16.52;8.07;;;1.20;84.70;;;;;;5031499;28;20041;-57
2023/01/27 06:08:52;;;;;;;15.55;8.75;;;1.20;84.90;;;;;;5033824;28;20601;-59
2023/01/27 06:11:19;;;;;;;19.90;10.85;;;1.20;85.80;;;;;;5031084;28;20124;-59
2023/01/27 06:13:46;;;;;;;16.38;8.98;;;1.20;86.00;;;;;;5034083;28;20061;-56
2023/01/27 06:16:16;;;;;;;18.95;9.88;;;1.20;85.40;;;;;;5034034;28;20041;-58
2023/01/27 06:18:42;;;;;;;20.35;9.70;;;1.10;85.50;;;;;;5032904;28;20504;-58
2023/01/27 06:21:10;;;;;;;19.10;9.63;;;1.20;85.60;;;;;;5035362;28;20056;-56
2023/01/27 06:23:36;;;;;;;16.00;9.48;;;1.30;85.80;;;;;;5033776;28;20092;-58
2023/01/27 06:26:15;;;;;;;20.25;9.85;;;1.30;85.80;;;;;;5032486;28;20217;-58
2023/01/27 06:28:40;;;;;;;15.25;8.80;;;1.40;85.80;;;;;;5033343;28;20484;-59
2023/01/27 06:31:15;;;;;;;16.60;9.23;;;1.40;85.80;;;;;;5032310;28;20506;-58
2023/01/27 06:33:40;;;;;;;16.48;9.52;;;1.40;85.80;;;;;;5034388;28;20034;-59
2023/01/27 06:36:09;;;;;;;16.85;9.27;;;1.40;85.80;;;;;;5034142;28;20083;-58
2023/01/27 06:38:35;;;;;;;18.92;10.00;;;1.40;85.80;;;;;;5033680;28;20033;-58
2023/01/27 06:41:01;;;;;;;18.20;9.57;;;1.50;85.80;;;;;;5032902;28;20493;-58
2023/01/27 06:43:26;;;;;;;24.58;9.52;;;1.40;85.70;;;;;;5031371;28;20033;-58
2023/01/27 06:45:52;;;;;;;17.23;8.88;;;1.50;85.80;;;;;;5035125;28;20034;-59
2023/01/27 06:48:18;;;;;;;14.65;8.55;;;1.50;85.70;;;;;;5033943;28;20048;-60
2023/01/27 06:50:44;;;;;;;17.52;9.15;;;1.50;85.70;;;;;;5031642;28;20493;-59
2023/01/27 06:53:10;;;;;;;16.25;8.38;;;1.50;85.60;;;;;;5034135;28;20052;-59
2023/01/27 06:55:43;;;;;;;14.90;7.97;;;1.50;85.60;;;;;;5033584;28;20025;-55
2023/01/27 06:58:10;;;;;;;14.40;7.97;;;1.50;85.40;;;;;;5032671;28;20511;-58
2023/01/27 07:00:37;;;;;;;13.30;7.78;;;1.50;85.40;;;;;;5036384;28;20037;-58
2023/01/27 07:03:03;;;;;;;13.45;8.13;;;1.50;85.40;;;;;;5036789;28;20405;-58
2023/01/27 07:05:29;;;;;;;14.23;7.60;;;1.50;85.40;;;;;;5036607;28;20038;-58
2023/01/27 07:07:55;;;;;;;13.45;7.65;;;1.50;85.50;;;;;;5036429;28;20036;-57
2023/01/27 07:10:20;;;;;;;15.25;7.65;;;1.60;85.40;;;;;;5035917;28;20560;-59
2023/01/27 07:12:46;;;;;;;16.05;8.18;;;1.60;85.40;;;;;;5032782;28;20067;-57
2023/01/27 07:15:12;;;;;;;14.70;7.60;;;1.60;85.40;;;;;;5033231;28;20437;-59
2023/01/27 07:17:38;;;;;;;13.98;7.50;;;1.50;85.30;;;;;;5032885;28;20036;-57
2023/01/27 07:20:05;;;;;;;13.75;7.50;;;1.50;85.30;;;;;;5032338;28;20493;-59
2023/01/27 07:22:31;;;;;;;15.98;7.85;;;1.50;85.40;;;;;;5034058;28;20033;-58
2023/01/27 07:24:57;;;;;;;14.40;7.93;;;1.50;85.40;;;;;;5034622;28;20433;-58
2023/01/27 07:27:24;;;;;;;16.25;8.98;;;1.50;85.40;;;;;;5032945;28;20049;-58
2023/01/27 07:29:50;;;;;;;17.17;10.30;;;1.50;85.40;;;;;;5031835;28;20623;-59
2023/01/27 07:32:16;;;;;;;15.93;9.05;;;1.50;85.40;;;;;;5033870;28;20140;-59
2023/01/27 07:34:41;;;;;;;16.83;9.55;;;1.50;85.30;;;;;;5029665;28;20113;-57
2023/01/27 07:37:07;;;;;;;20.55;11.18;;;1.50;85.30;;;;;;5031563;28;20037;-57
2023/01/27 07:39:34;;;;;;;17.77;10.23;;;1.50;85.30;;;;;;5033549;28;20102;-57
2023/01/27 07:42:00;;;;;;;19.17;11.55;;;1.40;85.30;;;;;;5033053;28;20042;-59
2023/01/27 07:44:26;;;;;;;19.42;10.52;;;1.50;85.40;;;;;;5030501;28;20033;-57
2023/01/27 07:46:53;;;;;;;17.63;10.48;;;1.40;85.30;;;;;;5033210;28;20107;-59
2023/01/27 07:49:18;;;;;;;16.60;9.18;;;1.40;85.30;;;;;;5034293;28;20057;-59
2023/01/27 07:51:44;;;;;;;13.15;7.65;;;1.30;85.30;;;;;;5032020;28;20531;-59
2023/01/27 07:54:10;;;;;;;13.40;7.20;;;1.40;85.40;;;;;;5031409;28;20132;-59
2023/01/27 07:56:36;;;;;;;13.40;7.55;;;1.40;85.40;;;;;;5032718;28;20033;-59
2023/01/27 07:59:02;;;;;;;12.50;7.38;;;1.40;85.50;;;;;;5031310;28;20120;-59
2023/01/27 08:01:28;;;;;;;14.85;8.15;;;1.40;85.60;;;;;;5031912;28;20044;-58
2023/01/27 08:03:53;;;;;;;13.90;7.80;;;1.40;85.50;;;;;;5033171;28;20060;-59
2023/01/27 08:06:19;;;;;;;16.05;8.55;;;1.40;85.60;;;;;;5033691;28;20037;-59
2023/01/27 08:08:45;;;;;;;14.65;8.13;;;1.40;85.50;;;;;;5030600;28;20029;-57
2023/01/27 08:11:13;;;;;;;14.48;7.80;;;1.50;85.50;;;;;;5030028;28;20039;-60
2023/01/27 08:13:39;;;;;;;13.77;7.88;;;1.40;85.30;;;;;;5029967;28;20040;-59
2023/01/27 08:16:07;;;;;;;15.10;8.05;;;1.50;85.30;;;;;;5032938;28;20029;-58
2023/01/27 08:18:33;;;;;;;14.43;7.60;;;1.40;85.10;;;;;;5031490;28;20041;-58
2023/01/27 08:21:01;;;;;;;14.48;8.05;;;1.50;85.20;;;;;;5029496;28;20033;-59
2023/01/27 08:23:26;;;;;;;15.07;7.68;;;1.40;85.10;;;;;;5033912;28;20065;-58
2023/01/27 08:25:57;;;;;;;14.77;8.10;;;1.50;85.10;;;;;;5031302;28;20057;-60
2023/01/27 08:28:24;;;;;;;12.95;7.53;;;1.50;85.20;;;;;;5032080;28;20038;-59
2023/01/27 08:30:53;;;;;;;12.45;7.20;;;1.40;85.10;;;;;;5036677;28;20061;-57
2023/01/27 08:33:21;;;;;;;13.32;7.50;;;1.40;85.00;;;;;;5036114;28;20049;-58
2023/01/27 08:35:48;;;;;;;15.05;7.90;;;1.50;85.20;;;;;;5035757;28;20552;-58
2023/01/27 08:38:15;;;;;;;15.40;8.30;;;1.50;85.20;;;;;;5034851;28;20538;-58
2023/01/27 08:40:42;;;;;;;14.05;7.25;;;1.40;85.20;;;;;;5036779;28;20060;-58
2023/01/27 08:43:08;;;;;;;14.65;7.55;;;1.50;85.30;;;;;;5033898;28;20048;-59
2023/01/27 08:45:34;;;;;;;13.25;7.95;;;1.50;85.30;;;;;;5036163;28;20675;-56
2023/01/27 08:48:01;;;;;;;13.02;6.95;;;1.50;85.20;;;;;;5036748;28;20120;-59
2023/01/27 08:50:29;;;;;;;10.23;6.50;;;1.40;85.30;;;;;;5036955;28;20114;-57
2023/01/27 08:52:57;;;;;;;12.95;7.22;;;1.40;85.40;;;;;;5036707;28;20397;-59
2023/01/27 08:55:26;;;;;;;13.63;6.88;;;1.40;85.50;;;;;;5033407;28;20044;-58
2023/01/27 08:57:52;;;;;;;13.88;7.50;;;1.40;85.50;;;;;;5035126;28;20048;-58
2023/01/27 09:00:18;;;;;;;12.98;6.97;;;1.40;85.40;;;;;;5036693;28;20037;-59
2023/01/27 09:02:44;;;;;;;16.85;8.02;;;1.40;85.50;;;;;;5028369;28;20041;-57
2023/01/27 09:05:09;;;;;;;14.85;8.00;;;1.40;85.60;;;;;;5034879;28;21891;-59
2023/01/27 09:07:35;;;;;;;15.98;8.35;;;1.40;85.50;;;;;;5036538;28;20116;-58
2023/01/27 09:10:01;;;;;;;13.85;7.95;;;1.40;85.70;;;;;;5037531;28;20045;-59
2023/01/27 09:12:26;;;;;;;15.65;8.45;;;1.40;85.80;;;;;;5031948;28;20033;-60
2023/01/27 09:14:52;;;;;;;15.10;8.15;;;1.40;86.00;;;;;;5035260;28;20037;-59
2023/01/27 09:17:18;;;;;;;14.77;7.45;;;1.40;86.10;;;;;;5037063;28;20036;-59
2023/01/27 09:19:45;;;;;;;15.32;8.05;;;1.40;86.10;;;;;;5036452;28;20033;-59
2023/01/27 09:22:11;;;;;;;16.63;9.20;;;1.40;86.20;;;;;;5032890;28;20408;-59
2023/01/27 09:24:36;;;;;;;17.10;9.13;;;1.50;86.00;;;;;;5035302;28;20033;-59
2023/01/27 09:27:02;;;;;;;17.60;8.95;;;1.50;85.80;;;;;;5034910;28;20579;-59
2023/01/27 09:29:28;;;;;;;16.98;9.20;;;1.50;85.70;;;;;;5033574;28;20044;-60
2023/01/27 09:31:53;;;;;;;20.17;9.45;;;1.50;85.60;;;;;;5036004;28;20041;-60
2023/01/27 09:34:19;;;;;;;17.33;9.52;;;1.50;85.60;;;;;;5035195;28;20087;-56
2023/01/27 09:36:51;;;;;;;18.55;9.60;;;1.50;85.60;;;;;;5035164;28;20037;-59
2023/01/27 09:39:18;;;;;;;19.15;9.65;;;1.50;85.50;;;;;;5035650;28;20034;-60
2023/01/27 09:42:07;;;;;;;19.67;9.82;;;1.50;85.40;;;;;;5036616;28;20136;-60
2023/01/27 09:44:51;;;;;;;18.90;9.48;;;1.50;85.30;;;;;;5033652;28;20048;-56
2023/01/27 09:47:46;;;;;;;19.60;10.02;;;1.50;85.00;;;;;;5036193;28;20041;-59
2023/01/27 09:50:40;;;;;;;20.20;10.13;;;1.50;85.00;;;;;;5036580;28;20029;-59
2023/01/27 09:53:36;;;;;;;18.95;10.38;;;1.50;85.00;;;;;;5032646;28;20068;-57
2023/01/27 09:56:12;;;;;;;18.42;9.00;;;1.50;85.10;;;;;;5033985;28;20037;-59
2023/01/27 09:59:15;;;;;;;17.83;9.38;;;1.60;85.10;;;;;;5032082;28;20030;-59
2023/01/27 10:02:01;;;;;;;17.70;9.35;;;1.50;84.90;;;;;;5034937;28;20033;-60
2023/01/27 10:04:45;;;;;;;20.77;10.80;;;1.50;85.10;;;;;;5036399;28;20040;-58
2023/01/27 10:07:39;;;;;;;20.57;11.07;;;1.50;85.10;;;;;;5036923;28;20100;-60
2023/01/27 10:10:19;;;;;;;19.52;9.90;;;1.50;85.30;;;;;;5034234;28;20288;-59
2023/01/27 10:13:08;;;;;;;16.08;9.50;;;1.60;85.30;;;;;;5031416;28;20124;-57
2023/01/27 10:16:07;;;;;;;18.45;9.80;;;1.60;85.20;;;;;;5035835;28;20033;-59
2023/01/27 10:18:51;;;;;;;17.40;9.60;;;1.60;84.90;;;;;;5032693;28;20042;-57
2023/01/27 10:21:25;;;;;;;19.93;10.80;;;1.70;84.90;;;;;;5034747;28;20037;-60
2023/01/27 10:24:06;;;;;;;;;;;1.70;84.20;;;;;;5032075;28;20296;-58
2023/01/27 10:26:40;;;;;;;20.63;10.25;;;1.70;83.90;;;;;;5034333;28;19999;-58
2023/01/27 10:29:22;;;;;;;;;;;1.70;84.40;;;;;;5033034;28;20109;-57
2023/01/27 10:31:56;;;;;;;19.98;10.05;;;1.70;84.40;;;;;;5034594;28;20390;-57
2023/01/27 10:34:34;;;;;;;;;;;1.70;84.40;;;;;;5035318;28;20037;-58
2023/01/27 10:37:05;;;;;;;18.38;9.25;;;1.70;84.40;;;;;;5033432;28;20007;-58
2023/01/27 10:39:43;;;;;;;18.90;10.20;;;1.70;84.60;;;;;;5034579;28;20471;-57
2023/01/27 10:42:11;;;;;;;21.90;10.98;;;1.70;84.70;;;;;;5035210;28;20029;-57
2023/01/27 10:44:55;;;;;;;19.23;10.15;;;1.70;84.70;;;;;;5033833;28;20033;-58
2023/01/27 10:47:54;;;;;;;16.47;8.87;;;1.70;84.70;;;;;;5037586;28;20040;-57
2023/01/27 10:50:32;;;;;;;16.55;8.50;;;1.70;84.60;;;;;;5033463;28;20048;-58
2023/01/27 10:53:07;;;;;;;19.33;9.25;;;1.70;84.60;;;;;;5030836;28;20033;-58
2023/01/27 10:55:42;;;;;;;16.95;9.50;;;1.70;85.40;;;;;;5034520;28;20040;-59
2023/01/27 10:58:46;;;;;;;19.13;9.68;;;1.80;84.50;;;;;;5031349;28;20412;-58
2023/01/27 11:01:17;;;;;;;19.08;9.88;;;1.80;84.40;;;;;;5032045;28;20041;-58
2023/01/27 11:03:46;;;;;;;16.63;8.38;;;1.80;84.60;;;;;;5033067;28;20063;-59
2023/01/27 11:06:20;;;;;;;16.42;8.43;;;1.70;84.60;;;;;;5034394;28;20160;-59
2023/01/27 11:08:51;;;;;;;15.57;8.40;;;1.80;84.60;;;;;;5034256;28;20135;-59
2023/01/27 11:14:22;;;;;;;19.08;10.10;;;1.80;84.70;;;;;;5032054;28;20567;-60
2023/01/27 11:16:51;;;;;;;17.15;8.85;;;1.80;84.70;;;;;;5034164;28;20389;-60
2023/01/27 11:19:17;;;;;;;18.80;10.05;;;1.80;84.70;;;;;;5030600;28;20340;-59
2023/01/27 11:21:43;;;;;;;19.05;8.93;;;1.80;84.70;;;;;;5032320;28;20037;-58
2023/01/27 11:24:27;;;;;;;15.38;7.93;;;1.80;84.70;;;;;;5035160;28;20033;-58
2023/01/27 11:27:02;;;;;;;14.68;7.72;;;1.80;84.10;;;;;;5033754;28;20489;-59
2023/01/27 11:29:36;;;;;;;;;;;1.80;84.30;;;;;;5031693;28;20443;-58
2023/01/27 11:32:40;;;;;;;14.80;7.77;;;1.80;84.40;;;;;;5033741;28;19964;-59
2023/01/27 11:35:12;;;;;;;19.45;9.73;;;1.80;84.30;;;;;;5034414;28;20060;-58
2023/01/27 11:37:44;;;;;;;19.90;10.23;;;1.80;84.40;;;;;;5030843;28;20064;-58
2023/01/27 11:40:37;;;;;;;17.27;8.48;;;1.80;84.40;;;;;;5032198;28;20336;-59
2023/01/27 11:43:03;;;;;;;14.10;7.90;;;1.80;84.50;;;;;;5029976;28;20045;-60
2023/01/27 11:45:38;;;;;;;15.90;8.82;;;1.80;84.60;;;;;;5032990;28;20584;-60
2023/01/27 11:48:08;;;;;;;16.52;9.15;;;1.90;84.70;;;;;;5035612;28;20072;-59
2023/01/27 11:50:35;;;;;;;18.27;9.90;;;1.80;84.90;;;;;;5033502;28;20432;-59
2023/01/27 11:53:15;;;;;;;18.50;9.65;;;1.90;84.90;;;;;;5032321;28;20041;-58
2023/01/27 11:55:59;;;;;;;17.88;9.30;;;1.90;84.70;;;;;;5032508;28;20072;-59
2023/01/27 11:58:30;;;;;;;18.33;9.65;;;1.90;84.70;;;;;;5031629;28;20602;-59
2023/01/27 12:01:04;;;;;;;18.30;8.90;;;1.90;84.60;;;;;;5032931;28;20426;-59
2023/01/27 12:03:48;;;;;;;18.23;9.68;;;1.90;84.60;;;;;;5031982;28;20424;-57
2023/01/27 12:06:42;;;;;;;17.33;9.05;;;1.90;84.70;;;;;;5034719;28;21943;-58
2023/01/27 12:09:32;;;;;;;14.75;7.45;;;1.90;84.70;;;;;;5035382;28;20045;-59
2023/01/27 12:12:12;;;;;;;14.63;7.65;;;1.90;84.70;;;;;;5029101;28;20266;-59
2023/01/27 12:14:49;;;;;;;18.42;8.15;;;1.90;84.90;;;;;;5034822;28;20040;-57
2023/01/27 12:17:21;;;;;;;15.55;8.10;;;1.90;84.90;;;;;;5036645;28;20033;-58
2023/01/27 12:19:47;;;;;;;17.15;8.15;;;1.90;84.90;;;;;;5035832;28;20045;-58
2023/01/27 12:22:24;;;;;;;20.00;9.60;;;2.00;85.10;;;;;;5037501;28;20033;-57
2023/01/27 12:24:54;;;;;;;19.60;9.00;;;2.00;85.00;;;;;;5035493;28;20399;-55
2023/01/27 12:27:23;;;;;;;18.63;8.98;;;2.00;85.00;;;;;;5035419;28;20029;-56
2023/01/27 12:30:05;;;;;;;19.15;10.18;;;2.10;84.90;;;;;;5033295;28;20047;-60
2023/01/27 12:32:44;;;;;;;20.50;10.57;;;2.10;84.50;;;;;;5035458;28;20087;-59
2023/01/27 12:35:26;;;;;;;17.25;9.43;;;2.10;83.90;;;;;;5036251;28;20033;-56
2023/01/27 12:38:00;;;;;;;18.05;8.95;;;2.00;83.50;;;;;;5037661;28;20038;-59
2023/01/27 12:40:28;;;;;;;15.95;8.50;;;2.00;83.90;;;;;;5035059;28;20040;-58
2023/01/27 12:43:17;;;;;;;17.85;8.85;;;2.00;84.20;;;;;;5029808;28;20037;-58
2023/01/27 12:45:44;;;;;;;17.15;8.25;;;2.00;84.40;;;;;;5037271;28;20037;-58
2023/01/27 12:48:12;;;;;;;16.48;9.15;;;1.90;84.60;;;;;;5035957;28;20414;-59
2023/01/27 12:50:51;;;;;;;15.32;7.93;;;1.90;84.50;;;;;;5036487;28;20034;-56
2023/01/27 12:53:29;;;;;;;15.98;7.78;;;1.90;84.60;;;;;;5037957;28;20497;-60
2023/01/27 12:56:10;;;;;;;14.13;7.47;;;1.90;84.60;;;;;;5036343;28;20050;-59
2023/01/27 12:58:58;;;;;;;14.77;8.07;;;2.00;84.70;;;;;;5033031;28;20103;-59
2023/01/27 13:01:32;;;;;;;15.73;7.93;;;2.00;84.70;;;;;;5033300;28;20480;-58
2023/01/27 13:04:18;;;;;;;14.10;7.47;;;2.00;84.60;;;;;;5036002;28;20449;-58
2023/01/27 13:06:55;;;;;;;14.32;7.22;;;2.00;84.60;;;;;;5036630;28;20032;-59
2023/01/27 13:09:33;;;;;;;15.95;7.90;;;2.00;84.50;;;;;;5035634;28;20425;-58
2023/01/27 13:12:19;;;;;;;14.15;7.18;;;2.00;84.40;;;;;;5031208;28;20042;-58
2023/01/27 13:14:50;;;;;;;15.93;7.97;;;2.10;84.20;;;;;;5035336;28;20061;-59
2023/01/27 13:17:28;;;;;;;14.75;7.47;;;2.10;84.00;;;;;;5032017;28;20044;-60
2023/01/27 13:19:59;;;;;;;14.27;7.60;;;2.10;84.00;;;;;;5036994;28;20393;-59
2023/01/27 13:22:26;;;;;;;14.52;6.50;;;2.10;84.20;;;;;;5034463;28;20041;-59
2023/01/27 13:24:58;;;;;;;14.38;7.47;;;2.10;84.40;;;;;;5034615;28;20052;-59
2023/01/27 13:27:24;;;;;;;12.43;6.43;;;2.10;84.50;;;;;;5033572;28;20095;-60
2023/01/27 13:30:26;;;;;;;15.40;7.22;;;2.10;84.70;;;;;;5034368;28;20029;-59
2023/01/27 13:32:54;;;;;;;12.43;6.60;;;2.20;84.20;;;;;;5031721;28;20033;-60